sensor_id;sensor_type;location;lat;lon;timestamp;P1;durP1;ratioP1;P2;durP2;ratioP2
65033;SDS011;51601;51.356;12.458;2023-09-19T00:03:23;6.55;;;1.92;;
65033;SDS011;51601;51.356;12.458;2023-09-19T00:07:42;5.77;;;1.83;;
65033;SDS011;51601;51.356;12.458;2023-09-19T00:12:02;7.93;;;2.17;;
65033;SDS011;51601;51.356;12.458;2023-09-19T00:16:20;6.03;;;1.80;;
65033;SDS011;51601;51.356;12.458;2023-09-19T00:20:38;6.13;;;2.20;;
65033;SDS011;51601;51.356;12.458;2023-09-19T00:25:00;4.30;;;1.70;;
65033;SDS011;51601;51.356;12.458;2023-09-19T00:29:23;7.32;;;2.00;;
65033;SDS011;51601;51.356;12.458;2023-09-19T00:33:44;5.77;;;1.93;;
65033;SDS011;51601;51.356;12.458;2023-09-19T00:38:06;9.32;;;2.33;;
65033;SDS011;51601;51.356;12.458;2023-09-19T00:42:25;6.15;;;2.05;;
65033;SDS011;51601;51.356;12.458;2023-09-19T00:46:45;6.47;;;2.10;;
65033;SDS011;51601;51.356;12.458;2023-09-19T00:51:06;5.73;;;2.10;;
65033;SDS011;51601;51.356;12.458;2023-09-19T00:55:24;5.95;;;1.90;;
65033;SDS011;51601;51.356;12.458;2023-09-19T00:59:46;5.35;;;1.90;;
65033;SDS011;51601;51.356;12.458;2023-09-19T01:04:06;6.00;;;1.97;;
65033;SDS011;51601;51.356;12.458;2023-09-19T01:08:24;6.28;;;2.08;;
65033;SDS011;51601;51.356;12.458;2023-09-19T01:12:48;6.00;;;2.03;;
65033;SDS011;51601;51.356;12.458;2023-09-19T01:17:17;5.10;;;2.10;;
65033;SDS011;51601;51.356;12.458;2023-09-19T01:21:44;6.93;;;2.13;;
65033;SDS011;51601;51.356;12.458;2023-09-19T01:26:11;6.47;;;2.05;;
65033;SDS011;51601;51.356;12.458;2023-09-19T01:30:39;6.63;;;2.20;;
65033;SDS011;51601;51.356;12.458;2023-09-19T01:35:02;5.93;;;2.17;;
65033;SDS011;51601;51.356;12.458;2023-09-19T01:39:20;4.82;;;2.10;;
65033;SDS011;51601;51.356;12.458;2023-09-19T01:43:39;5.15;;;2.10;;
65033;SDS011;51601;51.356;12.458;2023-09-19T01:48:01;6.80;;;2.27;;
65033;SDS011;51601;51.356;12.458;2023-09-19T01:52:34;6.97;;;2.15;;
65033;SDS011;51601;51.356;12.458;2023-09-19T01:57:01;7.22;;;2.30;;
65033;SDS011;51601;51.356;12.458;2023-09-19T02:01:24;6.90;;;2.33;;
65033;SDS011;51601;51.356;12.458;2023-09-19T02:05:49;6.28;;;2.40;;
65033;SDS011;51601;51.356;12.458;2023-09-19T02:10:09;6.07;;;2.28;;
65033;SDS011;51601;51.356;12.458;2023-09-19T02:14:27;5.63;;;2.60;;
65033;SDS011;51601;51.356;12.458;2023-09-19T02:18:45;5.67;;;2.17;;
65033;SDS011;51601;51.356;12.458;2023-09-19T02:23:05;7.18;;;2.67;;
65033;SDS011;51601;51.356;12.458;2023-09-19T02:27:24;6.30;;;2.40;;
65033;SDS011;51601;51.356;12.458;2023-09-19T02:31:42;5.20;;;2.23;;
65033;SDS011;51601;51.356;12.458;2023-09-19T02:36:04;6.95;;;2.20;;
65033;SDS011;51601;51.356;12.458;2023-09-19T02:40:23;5.68;;;2.42;;
65033;SDS011;51601;51.356;12.458;2023-09-19T02:44:43;4.80;;;1.90;;
65033;SDS011;51601;51.356;12.458;2023-09-19T02:49:04;6.05;;;2.15;;
65033;SDS011;51601;51.356;12.458;2023-09-19T02:53:22;6.35;;;2.40;;
65033;SDS011;51601;51.356;12.458;2023-09-19T02:57:42;5.95;;;1.98;;
65033;SDS011;51601;51.356;12.458;2023-09-19T03:02:04;4.87;;;2.00;;
65033;SDS011;51601;51.356;12.458;2023-09-19T03:06:22;5.20;;;1.90;;
65033;SDS011;51601;51.356;12.458;2023-09-19T03:10:40;6.50;;;2.05;;
65033;SDS011;51601;51.356;12.458;2023-09-19T03:15:00;6.50;;;2.10;;
65033;SDS011;51601;51.356;12.458;2023-09-19T03:19:16;5.07;;;1.80;;
65033;SDS011;51601;51.356;12.458;2023-09-19T03:23:38;5.10;;;2.15;;
65033;SDS011;51601;51.356;12.458;2023-09-19T03:27:56;6.53;;;2.10;;
65033;SDS011;51601;51.356;12.458;2023-09-19T03:32:15;5.07;;;2.08;;
65033;SDS011;51601;51.356;12.458;2023-09-19T03:36:35;5.22;;;1.92;;
65033;SDS011;51601;51.356;12.458;2023-09-19T03:40:53;6.28;;;2.42;;
65033;SDS011;51601;51.356;12.458;2023-09-19T03:45:11;5.60;;;1.90;;
65033;SDS011;51601;51.356;12.458;2023-09-19T03:49:36;5.20;;;1.95;;
65033;SDS011;51601;51.356;12.458;2023-09-19T03:53:53;6.10;;;1.75;;
65033;SDS011;51601;51.356;12.458;2023-09-19T03:58:11;5.50;;;1.73;;
65033;SDS011;51601;51.356;12.458;2023-09-19T04:02:29;4.97;;;1.90;;
65033;SDS011;51601;51.356;12.458;2023-09-19T04:06:52;5.65;;;2.17;;
65033;SDS011;51601;51.356;12.458;2023-09-19T04:11:11;5.00;;;1.70;;
65033;SDS011;51601;51.356;12.458;2023-09-19T04:15:29;4.90;;;1.90;;
65033;SDS011;51601;51.356;12.458;2023-09-19T04:19:48;4.50;;;1.90;;
65033;SDS011;51601;51.356;12.458;2023-09-19T04:24:07;6.07;;;2.10;;
65033;SDS011;51601;51.356;12.458;2023-09-19T04:28:27;5.07;;;1.87;;
65033;SDS011;51601;51.356;12.458;2023-09-19T04:32:45;4.47;;;1.90;;
65033;SDS011;51601;51.356;12.458;2023-09-19T04:37:09;6.28;;;1.92;;
65033;SDS011;51601;51.356;12.458;2023-09-19T04:41:28;6.40;;;1.77;;
65033;SDS011;51601;51.356;12.458;2023-09-19T04:45:45;4.82;;;2.10;;
65033;SDS011;51601;51.356;12.458;2023-09-19T04:50:04;4.30;;;1.77;;
65033;SDS011;51601;51.356;12.458;2023-09-19T04:54:24;5.20;;;1.87;;
65033;SDS011;51601;51.356;12.458;2023-09-19T04:58:44;4.85;;;1.75;;
65033;SDS011;51601;51.356;12.458;2023-09-19T05:03:04;5.97;;;2.00;;
65033;SDS011;51601;51.356;12.458;2023-09-19T05:07:21;5.20;;;1.92;;
65033;SDS011;51601;51.356;12.458;2023-09-19T05:11:40;4.73;;;1.70;;
65033;SDS011;51601;51.356;12.458;2023-09-19T05:16:01;5.28;;;1.80;;
65033;SDS011;51601;51.356;12.458;2023-09-19T05:20:19;4.75;;;1.60;;
65033;SDS011;51601;51.356;12.458;2023-09-19T05:24:40;5.87;;;2.20;;
65033;SDS011;51601;51.356;12.458;2023-09-19T05:28:58;4.82;;;1.90;;
65033;SDS011;51601;51.356;12.458;2023-09-19T05:33:17;4.75;;;1.70;;
65033;SDS011;51601;51.356;12.458;2023-09-19T05:37:34;5.87;;;1.90;;
65033;SDS011;51601;51.356;12.458;2023-09-19T05:41:52;5.18;;;2.10;;
65033;SDS011;51601;51.356;12.458;2023-09-19T05:46:10;5.38;;;1.83;;
65033;SDS011;51601;51.356;12.458;2023-09-19T05:50:30;6.18;;;2.10;;
65033;SDS011;51601;51.356;12.458;2023-09-19T05:54:49;8.30;;;2.00;;
65033;SDS011;51601;51.356;12.458;2023-09-19T05:59:07;4.90;;;1.70;;
65033;SDS011;51601;51.356;12.458;2023-09-19T06:03:25;5.43;;;1.70;;
65033;SDS011;51601;51.356;12.458;2023-09-19T06:07:48;6.40;;;1.97;;
65033;SDS011;51601;51.356;12.458;2023-09-19T06:12:08;5.13;;;1.85;;
65033;SDS011;51601;51.356;12.458;2023-09-19T06:16:29;5.43;;;1.80;;
65033;SDS011;51601;51.356;12.458;2023-09-19T06:20:47;7.67;;;1.67;;
65033;SDS011;51601;51.356;12.458;2023-09-19T06:25:10;5.25;;;1.70;;
65033;SDS011;51601;51.356;12.458;2023-09-19T06:29:29;4.90;;;1.70;;
65033;SDS011;51601;51.356;12.458;2023-09-19T06:33:47;5.35;;;1.58;;
65033;SDS011;51601;51.356;12.458;2023-09-19T06:38:05;5.47;;;1.60;;
65033;SDS011;51601;51.356;12.458;2023-09-19T06:42:25;4.60;;;1.63;;
65033;SDS011;51601;51.356;12.458;2023-09-19T06:46:44;6.10;;;1.70;;
65033;SDS011;51601;51.356;12.458;2023-09-19T06:51:06;8.80;;;2.37;;
65033;SDS011;51601;51.356;12.458;2023-09-19T06:55:27;8.13;;;1.90;;
65033;SDS011;51601;51.356;12.458;2023-09-19T06:59:49;6.07;;;1.67;;
65033;SDS011;51601;51.356;12.458;2023-09-19T07:04:09;4.27;;;1.37;;
65033;SDS011;51601;51.356;12.458;2023-09-19T07:08:27;6.32;;;1.60;;
65033;SDS011;51601;51.356;12.458;2023-09-19T07:12:45;5.53;;;1.55;;
65033;SDS011;51601;51.356;12.458;2023-09-19T07:17:05;4.57;;;1.35;;
65033;SDS011;51601;51.356;12.458;2023-09-19T07:21:24;4.83;;;1.20;;
65033;SDS011;51601;51.356;12.458;2023-09-19T07:25:42;6.43;;;1.60;;
65033;SDS011;51601;51.356;12.458;2023-09-19T07:30:00;4.60;;;1.60;;
65033;SDS011;51601;51.356;12.458;2023-09-19T07:34:20;7.20;;;1.40;;
65033;SDS011;51601;51.356;12.458;2023-09-19T07:38:40;4.47;;;1.30;;
65033;SDS011;51601;51.356;12.458;2023-09-19T07:42:58;6.38;;;1.50;;
65033;SDS011;51601;51.356;12.458;2023-09-19T07:47:16;6.13;;;1.77;;
65033;SDS011;51601;51.356;12.458;2023-09-19T07:51:35;5.05;;;1.60;;
65033;SDS011;51601;51.356;12.458;2023-09-19T07:56:01;6.18;;;1.50;;
65033;SDS011;51601;51.356;12.458;2023-09-19T08:00:19;4.68;;;1.30;;
65033;SDS011;51601;51.356;12.458;2023-09-19T08:04:37;6.20;;;1.40;;
65033;SDS011;51601;51.356;12.458;2023-09-19T08:08:56;5.43;;;1.42;;
65033;SDS011;51601;51.356;12.458;2023-09-19T08:13:16;5.43;;;1.50;;
65033;SDS011;51601;51.356;12.458;2023-09-19T08:17:34;5.70;;;1.50;;
65033;SDS011;51601;51.356;12.458;2023-09-19T08:21:52;6.15;;;1.45;;
65033;SDS011;51601;51.356;12.458;2023-09-19T08:26:12;5.38;;;1.60;;
65033;SDS011;51601;51.356;12.458;2023-09-19T08:30:29;6.43;;;1.70;;
65033;SDS011;51601;51.356;12.458;2023-09-19T08:34:47;5.95;;;1.42;;
65033;SDS011;51601;51.356;12.458;2023-09-19T08:39:05;6.18;;;1.60;;
65033;SDS011;51601;51.356;12.458;2023-09-19T08:43:24;4.70;;;1.30;;
65033;SDS011;51601;51.356;12.458;2023-09-19T08:47:43;6.07;;;1.33;;
65033;SDS011;51601;51.356;12.458;2023-09-19T08:52:07;6.22;;;1.50;;
65033;SDS011;51601;51.356;12.458;2023-09-19T08:56:32;4.53;;;1.30;;
65033;SDS011;51601;51.356;12.458;2023-09-19T09:00:52;5.80;;;1.47;;
65033;SDS011;51601;51.356;12.458;2023-09-19T09:05:12;6.15;;;1.30;;
65033;SDS011;51601;51.356;12.458;2023-09-19T09:09:32;6.72;;;1.38;;
65033;SDS011;51601;51.356;12.458;2023-09-19T09:13:51;4.90;;;1.33;;
65033;SDS011;51601;51.356;12.458;2023-09-19T09:18:10;8.98;;;1.60;;
65033;SDS011;51601;51.356;12.458;2023-09-19T09:22:30;7.60;;;1.40;;
65033;SDS011;51601;51.356;12.458;2023-09-19T09:26:48;8.70;;;1.77;;
65033;SDS011;51601;51.356;12.458;2023-09-19T09:31:06;6.87;;;1.30;;
65033;SDS011;51601;51.356;12.458;2023-09-19T09:35:48;8.93;;;1.52;;
65033;SDS011;51601;51.356;12.458;2023-09-19T09:40:07;5.78;;;1.60;;
65033;SDS011;51601;51.356;12.458;2023-09-19T09:44:50;7.30;;;1.50;;
65033;SDS011;51601;51.356;12.458;2023-09-19T09:49:32;5.95;;;1.40;;
65033;SDS011;51601;51.356;12.458;2023-09-19T09:53:51;5.40;;;1.55;;
65033;SDS011;51601;51.356;12.458;2023-09-19T09:58:17;8.63;;;1.50;;
65033;SDS011;51601;51.356;12.458;2023-09-19T10:02:38;6.22;;;1.65;;
65033;SDS011;51601;51.356;12.458;2023-09-19T10:06:57;5.63;;;1.80;;
65033;SDS011;51601;51.356;12.458;2023-09-19T10:11:22;5.32;;;1.60;;
65033;SDS011;51601;51.356;12.458;2023-09-19T10:15:47;6.80;;;1.77;;
65033;SDS011;51601;51.356;12.458;2023-09-19T10:20:10;5.63;;;1.80;;
65033;SDS011;51601;51.356;12.458;2023-09-19T10:24:39;6.53;;;1.27;;
65033;SDS011;51601;51.356;12.458;2023-09-19T10:29:14;4.63;;;1.40;;
65033;SDS011;51601;51.356;12.458;2023-09-19T10:33:35;5.53;;;1.50;;
65033;SDS011;51601;51.356;12.458;2023-09-19T10:42:19;6.47;;;1.73;;
65033;SDS011;51601;51.356;12.458;2023-09-19T10:46:42;9.00;;;1.70;;
65033;SDS011;51601;51.356;12.458;2023-09-19T10:51:03;6.60;;;1.52;;
65033;SDS011;51601;51.356;12.458;2023-09-19T10:55:26;6.25;;;1.60;;
65033;SDS011;51601;51.356;12.458;2023-09-19T11:00:00;6.30;;;1.53;;
65033;SDS011;51601;51.356;12.458;2023-09-19T11:04:40;6.53;;;1.60;;
65033;SDS011;51601;51.356;12.458;2023-09-19T11:09:00;7.97;;;1.60;;
65033;SDS011;51601;51.356;12.458;2023-09-19T11:13:36;5.73;;;1.63;;
65033;SDS011;51601;51.356;12.458;2023-09-19T11:17:57;6.88;;;1.50;;
65033;SDS011;51601;51.356;12.458;2023-09-19T11:22:17;5.82;;;1.60;;
65033;SDS011;51601;51.356;12.458;2023-09-19T11:26:40;5.63;;;1.60;;
65033;SDS011;51601;51.356;12.458;2023-09-19T11:35:59;7.90;;;1.70;;
65033;SDS011;51601;51.356;12.458;2023-09-19T11:40:21;5.70;;;1.60;;
65033;SDS011;51601;51.356;12.458;2023-09-19T11:44:41;6.20;;;1.63;;
65033;SDS011;51601;51.356;12.458;2023-09-19T11:49:05;5.07;;;1.45;;
65033;SDS011;51601;51.356;12.458;2023-09-19T11:53:23;7.15;;;1.60;;
65033;SDS011;51601;51.356;12.458;2023-09-19T11:57:49;6.77;;;1.70;;
65033;SDS011;51601;51.356;12.458;2023-09-19T12:02:08;6.38;;;1.70;;
65033;SDS011;51601;51.356;12.458;2023-09-19T12:06:30;10.10;;;1.90;;
65033;SDS011;51601;51.356;12.458;2023-09-19T12:10:51;5.47;;;1.53;;
65033;SDS011;51601;51.356;12.458;2023-09-19T12:15:13;7.35;;;1.75;;
65033;SDS011;51601;51.356;12.458;2023-09-19T12:19:33;7.03;;;1.88;;
65033;SDS011;51601;51.356;12.458;2023-09-19T12:23:58;6.72;;;1.60;;
65033;SDS011;51601;51.356;12.458;2023-09-19T12:28:21;5.80;;;1.70;;
65033;SDS011;51601;51.356;12.458;2023-09-19T12:32:47;7.20;;;1.92;;
65033;SDS011;51601;51.356;12.458;2023-09-19T12:37:07;8.25;;;2.40;;
65033;SDS011;51601;51.356;12.458;2023-09-19T12:41:31;8.77;;;2.00;;
65033;SDS011;51601;51.356;12.458;2023-09-19T12:45:49;9.18;;;2.10;;
65033;SDS011;51601;51.356;12.458;2023-09-19T12:50:12;7.28;;;1.80;;
65033;SDS011;51601;51.356;12.458;2023-09-19T12:54:38;5.80;;;2.13;;
65033;SDS011;51601;51.356;12.458;2023-09-19T12:58:56;7.50;;;2.00;;
65033;SDS011;51601;51.356;12.458;2023-09-19T13:03:24;6.03;;;2.00;;
65033;SDS011;51601;51.356;12.458;2023-09-19T13:07:45;6.90;;;2.10;;
65033;SDS011;51601;51.356;12.458;2023-09-19T13:12:05;10.53;;;2.23;;
65033;SDS011;51601;51.356;12.458;2023-09-19T13:16:54;7.00;;;2.28;;
65033;SDS011;51601;51.356;12.458;2023-09-19T13:21:15;7.47;;;2.03;;
65033;SDS011;51601;51.356;12.458;2023-09-19T13:25:41;7.10;;;2.10;;
65033;SDS011;51601;51.356;12.458;2023-09-19T13:29:58;6.18;;;1.85;;
65033;SDS011;51601;51.356;12.458;2023-09-19T13:34:19;8.43;;;2.22;;
65033;SDS011;51601;51.356;12.458;2023-09-19T13:38:36;7.10;;;1.97;;
65033;SDS011;51601;51.356;12.458;2023-09-19T13:42:56;7.80;;;2.10;;
65033;SDS011;51601;51.356;12.458;2023-09-19T13:47:12;6.03;;;2.30;;
65033;SDS011;51601;51.356;12.458;2023-09-19T13:51:34;7.03;;;2.20;;
65033;SDS011;51601;51.356;12.458;2023-09-19T13:55:52;6.57;;;2.20;;
65033;SDS011;51601;51.356;12.458;2023-09-19T14:00:12;8.23;;;2.10;;
65033;SDS011;51601;51.356;12.458;2023-09-19T14:04:31;7.10;;;2.35;;
65033;SDS011;51601;51.356;12.458;2023-09-19T14:08:49;6.60;;;2.20;;
65033;SDS011;51601;51.356;12.458;2023-09-19T14:13:07;7.28;;;2.45;;
65033;SDS011;51601;51.356;12.458;2023-09-19T14:17:26;7.38;;;2.80;;
65033;SDS011;51601;51.356;12.458;2023-09-19T14:21:46;5.90;;;2.20;;
65033;SDS011;51601;51.356;12.458;2023-09-19T14:26:04;6.20;;;2.20;;
65033;SDS011;51601;51.356;12.458;2023-09-19T14:30:22;8.10;;;2.53;;
65033;SDS011;51601;51.356;12.458;2023-09-19T14:34:42;6.93;;;2.50;;
65033;SDS011;51601;51.356;12.458;2023-09-19T14:39:02;7.07;;;2.27;;
65033;SDS011;51601;51.356;12.458;2023-09-19T14:43:19;6.82;;;2.80;;
65033;SDS011;51601;51.356;12.458;2023-09-19T14:47:38;7.82;;;2.60;;
65033;SDS011;51601;51.356;12.458;2023-09-19T14:51:57;6.37;;;2.70;;
65033;SDS011;51601;51.356;12.458;2023-09-19T14:56:14;6.25;;;2.55;;
65033;SDS011;51601;51.356;12.458;2023-09-19T15:00:35;7.15;;;2.35;;
65033;SDS011;51601;51.356;12.458;2023-09-19T15:04:53;6.57;;;2.50;;
65033;SDS011;51601;51.356;12.458;2023-09-19T15:09:12;6.80;;;2.60;;
65033;SDS011;51601;51.356;12.458;2023-09-19T15:13:32;6.28;;;2.50;;
65033;SDS011;51601;51.356;12.458;2023-09-19T15:17:50;6.95;;;2.65;;
65033;SDS011;51601;51.356;12.458;2023-09-19T15:22:08;7.10;;;2.77;;
65033;SDS011;51601;51.356;12.458;2023-09-19T15:26:28;8.02;;;2.80;;
65033;SDS011;51601;51.356;12.458;2023-09-19T15:30:47;8.32;;;2.70;;
65033;SDS011;51601;51.356;12.458;2023-09-19T15:35:08;7.03;;;2.70;;
65033;SDS011;51601;51.356;12.458;2023-09-19T15:39:30;7.97;;;2.60;;
65033;SDS011;51601;51.356;12.458;2023-09-19T15:43:52;6.35;;;2.42;;
65033;SDS011;51601;51.356;12.458;2023-09-19T15:48:12;7.50;;;2.70;;
65033;SDS011;51601;51.356;12.458;2023-09-19T15:52:30;5.85;;;2.25;;
65033;SDS011;51601;51.356;12.458;2023-09-19T15:56:48;6.47;;;2.58;;
65033;SDS011;51601;51.356;12.458;2023-09-19T16:01:10;6.97;;;2.58;;
65033;SDS011;51601;51.356;12.458;2023-09-19T16:05:27;6.40;;;2.30;;
65033;SDS011;51601;51.356;12.458;2023-09-19T16:09:45;5.60;;;2.25;;
65033;SDS011;51601;51.356;12.458;2023-09-19T16:14:03;8.55;;;2.78;;
65033;SDS011;51601;51.356;12.458;2023-09-19T16:18:26;9.17;;;2.70;;
65033;SDS011;51601;51.356;12.458;2023-09-19T16:22:45;6.80;;;2.45;;
65033;SDS011;51601;51.356;12.458;2023-09-19T16:27:04;7.10;;;2.65;;
65033;SDS011;51601;51.356;12.458;2023-09-19T16:31:22;6.50;;;2.50;;
65033;SDS011;51601;51.356;12.458;2023-09-19T16:35:41;7.82;;;2.40;;
65033;SDS011;51601;51.356;12.458;2023-09-19T16:40:01;7.13;;;2.28;;
65033;SDS011;51601;51.356;12.458;2023-09-19T16:44:19;6.10;;;2.42;;
65033;SDS011;51601;51.356;12.458;2023-09-19T16:48:37;9.53;;;2.60;;
65033;SDS011;51601;51.356;12.458;2023-09-19T16:53:18;8.25;;;2.53;;
65033;SDS011;51601;51.356;12.458;2023-09-19T16:57:38;8.10;;;2.45;;
65033;SDS011;51601;51.356;12.458;2023-09-19T17:01:59;9.83;;;2.40;;
65033;SDS011;51601;51.356;12.458;2023-09-19T17:06:17;8.77;;;2.40;;
65033;SDS011;51601;51.356;12.458;2023-09-19T17:10:39;7.35;;;2.50;;
65033;SDS011;51601;51.356;12.458;2023-09-19T17:14:59;6.60;;;2.30;;
65033;SDS011;51601;51.356;12.458;2023-09-19T17:19:17;8.05;;;2.47;;
65033;SDS011;51601;51.356;12.458;2023-09-19T17:23:38;8.40;;;2.70;;
65033;SDS011;51601;51.356;12.458;2023-09-19T17:27:58;7.65;;;2.67;;
65033;SDS011;51601;51.356;12.458;2023-09-19T17:32:17;6.77;;;2.90;;
65033;SDS011;51601;51.356;12.458;2023-09-19T17:36:35;8.25;;;2.60;;
65033;SDS011;51601;51.356;12.458;2023-09-19T17:40:54;8.15;;;2.47;;
65033;SDS011;51601;51.356;12.458;2023-09-19T17:45:13;7.10;;;2.60;;
65033;SDS011;51601;51.356;12.458;2023-09-19T17:49:33;6.40;;;2.40;;
65033;SDS011;51601;51.356;12.458;2023-09-19T17:53:51;7.43;;;2.65;;
65033;SDS011;51601;51.356;12.458;2023-09-19T17:58:12;6.13;;;2.50;;
65033;SDS011;51601;51.356;12.458;2023-09-19T18:02:31;6.97;;;2.67;;
65033;SDS011;51601;51.356;12.458;2023-09-19T18:06:51;6.82;;;2.55;;
65033;SDS011;51601;51.356;12.458;2023-09-19T18:11:11;6.93;;;2.50;;
65033;SDS011;51601;51.356;12.458;2023-09-19T18:52:35;8.88;;;3.17;;
65033;SDS011;51601;51.356;12.458;2023-09-19T18:56:56;6.85;;;2.40;;
65033;SDS011;51601;51.356;12.458;2023-09-19T19:01:14;9.07;;;2.80;;
65033;SDS011;51601;51.356;12.458;2023-09-19T19:05:35;7.40;;;2.30;;
65033;SDS011;51601;51.356;12.458;2023-09-19T19:09:54;8.48;;;2.70;;
65033;SDS011;51601;51.356;12.458;2023-09-19T19:14:14;7.15;;;2.17;;
65033;SDS011;51601;51.356;12.458;2023-09-19T19:18:32;9.40;;;2.70;;
65033;SDS011;51601;51.356;12.458;2023-09-19T19:22:53;7.45;;;2.33;;
65033;SDS011;51601;51.356;12.458;2023-09-19T19:27:16;9.07;;;2.40;;
65033;SDS011;51601;51.356;12.458;2023-09-19T19:31:35;6.60;;;2.30;;
65033;SDS011;51601;51.356;12.458;2023-09-19T19:36:02;8.70;;;2.40;;
65033;SDS011;51601;51.356;12.458;2023-09-19T19:40:21;8.88;;;2.90;;
65033;SDS011;51601;51.356;12.458;2023-09-19T19:44:40;7.82;;;2.58;;
65033;SDS011;51601;51.356;12.458;2023-09-19T19:49:00;6.93;;;2.20;;
65033;SDS011;51601;51.356;12.458;2023-09-19T19:53:23;7.72;;;2.55;;
65033;SDS011;51601;51.356;12.458;2023-09-19T19:57:42;6.85;;;2.58;;
65033;SDS011;51601;51.356;12.458;2023-09-19T20:02:02;7.70;;;2.70;;
65033;SDS011;51601;51.356;12.458;2023-09-19T20:06:21;9.75;;;2.92;;
65033;SDS011;51601;51.356;12.458;2023-09-19T20:10:39;6.45;;;2.35;;
65033;SDS011;51601;51.356;12.458;2023-09-19T20:14:57;7.47;;;2.50;;
65033;SDS011;51601;51.356;12.458;2023-09-19T20:19:17;6.18;;;2.17;;
65033;SDS011;51601;51.356;12.458;2023-09-19T20:23:37;7.65;;;2.30;;
65033;SDS011;51601;51.356;12.458;2023-09-19T20:27:55;8.63;;;2.60;;
65033;SDS011;51601;51.356;12.458;2023-09-19T20:32:13;6.10;;;2.10;;
65033;SDS011;51601;51.356;12.458;2023-09-19T20:36:32;6.85;;;2.17;;
65033;SDS011;51601;51.356;12.458;2023-09-19T20:40:55;10.52;;;2.50;;
65033;SDS011;51601;51.356;12.458;2023-09-19T20:45:13;8.43;;;2.43;;
65033;SDS011;51601;51.356;12.458;2023-09-19T20:49:31;7.32;;;2.58;;
65033;SDS011;51601;51.356;12.458;2023-09-19T20:53:52;7.80;;;2.30;;
65033;SDS011;51601;51.356;12.458;2023-09-19T20:58:13;6.80;;;2.33;;
65033;SDS011;51601;51.356;12.458;2023-09-19T21:02:32;8.43;;;2.25;;
65033;SDS011;51601;51.356;12.458;2023-09-19T21:06:50;7.90;;;2.67;;
65033;SDS011;51601;51.356;12.458;2023-09-19T21:11:13;7.00;;;2.20;;
65033;SDS011;51601;51.356;12.458;2023-09-19T21:15:32;7.80;;;2.00;;
65033;SDS011;51601;51.356;12.458;2023-09-19T21:19:56;7.72;;;2.70;;
65033;SDS011;51601;51.356;12.458;2023-09-19T21:24:14;6.13;;;2.30;;
65033;SDS011;51601;51.356;12.458;2023-09-19T21:28:37;7.13;;;1.90;;
65033;SDS011;51601;51.356;12.458;2023-09-19T21:32:56;7.05;;;2.60;;
65033;SDS011;51601;51.356;12.458;2023-09-19T21:37:14;9.45;;;2.58;;
65033;SDS011;51601;51.356;12.458;2023-09-19T21:41:32;8.63;;;2.43;;
65033;SDS011;51601;51.356;12.458;2023-09-19T21:45:55;6.72;;;2.65;;
65033;SDS011;51601;51.356;12.458;2023-09-19T21:50:15;7.45;;;2.53;;
65033;SDS011;51601;51.356;12.458;2023-09-19T21:54:33;11.25;;;2.90;;
65033;SDS011;51601;51.356;12.458;2023-09-19T21:58:51;7.97;;;2.70;;
65033;SDS011;51601;51.356;12.458;2023-09-19T22:03:10;8.35;;;2.92;;
65033;SDS011;51601;51.356;12.458;2023-09-19T22:07:30;9.52;;;2.80;;
65033;SDS011;51601;51.356;12.458;2023-09-19T22:11:49;7.37;;;2.90;;
65033;SDS011;51601;51.356;12.458;2023-09-19T22:16:10;8.93;;;3.00;;
65033;SDS011;51601;51.356;12.458;2023-09-19T22:20:32;9.20;;;2.60;;
65033;SDS011;51601;51.356;12.458;2023-09-19T22:24:54;8.40;;;2.90;;
65033;SDS011;51601;51.356;12.458;2023-09-19T22:29:13;9.25;;;2.70;;
65033;SDS011;51601;51.356;12.458;2023-09-19T22:33:34;7.25;;;2.70;;
65033;SDS011;51601;51.356;12.458;2023-09-19T22:37:56;8.20;;;2.85;;
65033;SDS011;51601;51.356;12.458;2023-09-19T22:42:28;8.67;;;2.50;;
65033;SDS011;51601;51.356;12.458;2023-09-19T22:46:46;5.63;;;2.28;;
65033;SDS011;51601;51.356;12.458;2023-09-19T22:51:04;7.13;;;2.47;;
65033;SDS011;51601;51.356;12.458;2023-09-19T22:55:30;6.57;;;2.60;;
65033;SDS011;51601;51.356;12.458;2023-09-19T22:59:56;7.45;;;2.50;;
65033;SDS011;51601;51.356;12.458;2023-09-19T23:04:14;7.78;;;2.45;;
65033;SDS011;51601;51.356;12.458;2023-09-19T23:08:35;6.93;;;2.60;;
65033;SDS011;51601;51.356;12.458;2023-09-19T23:12:54;6.68;;;2.47;;
65033;SDS011;51601;51.356;12.458;2023-09-19T23:17:14;6.63;;;2.33;;
65033;SDS011;51601;51.356;12.458;2023-09-19T23:21:38;7.28;;;2.88;;
65033;SDS011;51601;51.356;12.458;2023-09-19T23:25:59;8.43;;;2.67;;
65033;SDS011;51601;51.356;12.458;2023-09-19T23:30:22;6.57;;;2.58;;
65033;SDS011;51601;51.356;12.458;2023-09-19T23:34:42;9.82;;;2.30;;
65033;SDS011;51601;51.356;12.458;2023-09-19T23:39:03;6.27;;;2.50;;
65033;SDS011;51601;51.356;12.458;2023-09-19T23:43:24;9.98;;;2.53;;
65033;SDS011;51601;51.356;12.458;2023-09-19T23:47:50;6.78;;;2.17;;
65033;SDS011;51601;51.356;12.458;2023-09-19T23:52:09;7.17;;;2.47;;
65033;SDS011;51601;51.356;12.458;2023-09-19T23:56:27;6.32;;;2.70;;
